createdAt,value
2018-08-03T00:02:26.138Z,12.00
2018-08-03T00:04:58.205Z,11.93
2018-08-03T00:07:30.285Z,12.07
2018-08-03T00:10:02.332Z,11.00
2018-08-03T00:12:34.448Z,12.90
2018-08-03T00:15:07.942Z,11.07
2018-08-03T00:17:40.163Z,12.80
2018-08-03T00:20:12.237Z,12.43
2018-08-03T00:22:44.297Z,14.27
2018-08-03T00:25:16.264Z,13.07
2018-08-03T00:27:48.190Z,13.17
2018-08-03T00:30:21.308Z,12.23
2018-08-03T00:32:53.426Z,12.73
2018-08-03T00:35:25.343Z,14.00
2018-08-03T00:37:57.322Z,15.03
2018-08-03T00:40:29.402Z,14.23
2018-08-03T00:43:01.379Z,11.53
2018-08-03T00:45:33.547Z,12.63
2018-08-03T00:48:05.200Z,12.83
2018-08-03T00:50:37.460Z,14.57
2018-08-03T00:53:09.677Z,13.83
2018-08-03T00:55:41.690Z,11.70
2018-08-03T00:58:13.864Z,10.50
2018-08-03T01:00:46.624Z,12.97
2018-08-03T01:03:18.685Z,12.93
2018-08-03T01:05:51.123Z,10.83
2018-08-03T01:08:23.227Z,11.93
2018-08-03T01:10:55.274Z,11.27
2018-08-03T01:13:27.473Z,11.90
2018-08-03T01:15:59.623Z,12.23
2018-08-03T01:18:31.947Z,11.40
2018-08-03T01:21:04.060Z,13.20
2018-08-03T01:23:36.209Z,14.17
2018-08-03T01:26:08.325Z,13.00
2018-08-03T01:28:40.511Z,11.93
2018-08-03T01:31:12.522Z,13.17
2018-08-03T01:33:44.780Z,15.40
2018-08-03T01:36:16.885Z,18.10
2018-08-03T01:38:49.025Z,14.93
2018-08-03T01:41:21.042Z,17.47
2018-08-03T01:43:53.128Z,18.30
2018-08-03T01:46:25.215Z,18.53
2018-08-03T01:48:57.326Z,20.50
2018-08-03T01:51:29.354Z,19.20
2018-08-03T01:54:01.605Z,17.73
2018-08-03T01:56:33.622Z,19.37
2018-08-03T01:59:05.719Z,16.63
2018-08-03T02:01:37.770Z,19.47
2018-08-03T02:04:09.858Z,18.30
2018-08-03T02:06:41.988Z,20.90
2018-08-03T02:09:14.231Z,21.27
2018-08-03T02:11:46.467Z,20.20
2018-08-03T02:14:18.578Z,16.97
2018-08-03T02:16:50.537Z,15.53
2018-08-03T02:19:22.657Z,16.13
2018-08-03T02:21:54.625Z,20.30
2018-08-03T02:24:26.722Z,19.97
2018-08-03T02:26:58.788Z,21.73
2018-08-03T02:29:30.938Z,21.90
2018-08-03T02:32:03.217Z,22.17
2018-08-03T02:34:35.346Z,21.37
2018-08-03T02:37:07.395Z,20.40
2018-08-03T02:39:39.447Z,19.53
2018-08-03T02:42:11.559Z,18.83
2018-08-03T02:44:43.906Z,24.33
2018-08-03T02:47:16.054Z,21.57
2018-08-03T02:49:48.134Z,20.70
2018-08-03T02:52:20.149Z,24.60
2018-08-03T02:54:52.228Z,24.73
2018-08-03T02:57:24.168Z,21.57
2018-08-03T02:59:56.802Z,21.87
2018-08-03T03:02:28.817Z,22.10
2018-08-03T03:05:00.895Z,24.47
2018-08-03T03:07:32.956Z,22.80
2018-08-03T03:10:08.089Z,22.27
2018-08-03T03:12:40.117Z,26.30
2018-08-03T03:15:12.504Z,23.67
2018-08-03T03:17:44.568Z,22.73
2018-08-03T03:20:16.602Z,19.50
2018-08-03T03:22:48.683Z,16.33
2018-08-03T03:25:21.361Z,22.37
2018-08-03T03:27:53.364Z,21.07
2018-08-03T03:30:24.902Z,19.70
2018-08-03T03:32:56.742Z,19.40
2018-08-03T03:35:28.808Z,19.57
2018-08-03T03:38:00.960Z,19.37
2018-08-03T03:40:33.372Z,16.97
2018-08-03T03:43:05.467Z,17.87
2018-08-03T03:45:37.758Z,18.90
2018-08-03T03:48:09.703Z,17.00
2018-08-03T03:50:41.683Z,19.40
2018-08-03T03:53:13.762Z,19.50
2018-08-03T03:55:45.868Z,19.27
2018-08-03T03:58:18.124Z,18.50
2018-08-03T04:00:50.145Z,19.27
2018-08-03T04:03:22.134Z,19.30
2018-08-03T04:05:54.897Z,16.70
2018-08-03T04:08:27.029Z,19.47
2018-08-03T04:10:59.214Z,17.73
2018-08-03T04:13:31.328Z,18.80
2018-08-03T04:16:02.821Z,16.60
2018-08-03T04:18:34.589Z,16.07
2018-08-03T04:21:06.642Z,17.70
2018-08-03T04:23:38.736Z,18.40
2018-08-03T04:26:10.858Z,20.23
2018-08-03T04:28:42.831Z,21.50
2018-08-03T04:31:14.909Z,19.13
2018-08-03T04:33:46.936Z,20.47
2018-08-03T04:36:19.258Z,20.93
2018-08-03T04:38:51.407Z,21.50
2018-08-03T04:41:23.539Z,22.20
2018-08-03T04:43:55.502Z,21.40
2018-08-03T04:46:27.505Z,20.50
2018-08-03T04:49:00.171Z,18.63
2018-08-03T04:51:32.200Z,19.80
2018-08-03T04:54:04.243Z,19.30
2018-08-03T04:56:36.378Z,16.90
2018-08-03T04:59:08.654Z,18.13
2018-08-03T05:01:40.697Z,17.53
2018-08-03T05:04:12.677Z,21.20
2018-08-03T05:06:44.649Z,20.60
2018-08-03T05:09:16.630Z,22.67
2018-08-03T05:11:48.624Z,21.77
2018-08-03T05:14:20.829Z,21.27
2018-08-03T05:16:53.141Z,23.00
2018-08-03T05:19:25.403Z,23.20
2018-08-03T05:21:57.781Z,23.00
2018-08-03T05:24:30.063Z,22.93
2018-08-03T05:27:02.261Z,21.30
2018-08-03T05:29:34.563Z,18.67
2018-08-03T05:32:07.111Z,22.27
2018-08-03T05:34:39.568Z,21.00
2018-08-03T05:37:11.825Z,21.93
2018-08-03T05:39:44.016Z,22.70
2018-08-03T05:42:16.676Z,24.17
2018-08-03T05:44:49.162Z,20.90
2018-08-03T05:47:21.876Z,21.33
2018-08-03T05:49:54.225Z,21.90
2018-08-03T05:52:26.746Z,20.43
2018-08-03T05:54:59.081Z,21.77
2018-08-03T05:57:31.623Z,21.33
2018-08-03T06:00:04.078Z,20.27
2018-08-03T06:02:36.452Z,20.03
2018-08-03T06:05:10.366Z,19.53
2018-08-03T06:07:42.870Z,19.87
2018-08-03T06:10:15.608Z,20.80
2018-08-03T06:12:48.012Z,20.27
2018-08-03T06:15:20.398Z,21.97
2018-08-03T06:17:52.758Z,22.20
2018-08-03T06:20:25.168Z,21.63
2018-08-03T06:22:57.568Z,20.83
2018-08-03T06:25:29.939Z,20.53
2018-08-03T06:28:02.158Z,22.20
2018-08-03T06:30:34.333Z,21.90
2018-08-03T06:33:06.686Z,21.70
2018-08-03T06:35:38.942Z,22.60
2018-08-03T06:38:11.398Z,22.00
2018-08-03T06:40:43.896Z,21.30
2018-08-03T06:43:16.255Z,20.90
2018-08-03T06:45:48.463Z,20.20
2018-08-03T06:48:20.796Z,20.43
2018-08-03T06:50:52.988Z,20.30
2018-08-03T06:53:28.536Z,19.70
2018-08-03T06:56:00.756Z,20.20
2018-08-03T06:58:33.222Z,20.47
2018-08-03T07:01:05.588Z,20.83
2018-08-03T07:03:37.899Z,21.97
2018-08-03T07:06:10.114Z,20.43
2018-08-03T07:08:42.349Z,18.90
2018-08-03T07:11:14.748Z,20.43
2018-08-03T07:13:46.944Z,21.77
2018-08-03T07:16:19.561Z,21.50
2018-08-03T07:18:51.878Z,20.43
2018-08-03T07:21:27.781Z,21.37
2018-08-03T07:24:00.502Z,20.70
2018-08-03T07:26:32.828Z,21.10
2018-08-03T07:29:05.329Z,21.83
2018-08-03T07:31:37.724Z,20.27
2018-08-03T07:34:10.103Z,21.53
2018-08-03T07:36:42.353Z,20.23
2018-08-03T07:39:14.786Z,19.33
2018-08-03T07:41:47.311Z,20.03
2018-08-03T07:44:19.615Z,18.03
2018-08-03T07:46:52.128Z,17.87
2018-08-03T07:49:24.664Z,16.53
2018-08-03T07:51:56.981Z,16.70
2018-08-03T07:54:29.036Z,17.87
2018-08-03T07:57:01.093Z,17.97
2018-08-03T07:59:33.274Z,17.20
2018-08-03T08:02:05.354Z,17.47
2018-08-03T08:04:37.444Z,18.17
2018-08-03T08:07:09.568Z,17.53
2018-08-03T08:09:41.687Z,16.43
2018-08-03T08:12:13.756Z,17.43
2018-08-03T08:14:45.977Z,16.23
2018-08-03T08:17:18.254Z,17.23
2018-08-03T08:19:50.434Z,16.47
2018-08-03T08:22:22.401Z,15.03
2018-08-03T08:24:54.585Z,16.37
2018-08-03T08:27:26.664Z,15.03
2018-08-03T08:29:58.852Z,14.43
2018-08-03T08:32:30.822Z,13.50
2018-08-03T08:35:03.011Z,15.37
2018-08-03T08:37:35.187Z,13.63
2018-08-03T08:40:07.616Z,13.27
2018-08-03T08:42:39.706Z,13.30
2018-08-03T08:45:11.825Z,12.70
2018-08-03T08:47:44.024Z,11.93
2018-08-03T08:50:16.143Z,11.97
2018-08-03T08:52:48.236Z,12.07
2018-08-03T08:55:20.358Z,10.90
2018-08-03T08:57:55.400Z,11.30
2018-08-03T09:00:27.648Z,10.13
2018-08-03T09:02:59.740Z,10.30
2018-08-03T09:05:31.898Z,10.17
2018-08-03T09:08:04.458Z,9.90
2018-08-03T09:10:36.717Z,9.97
2018-08-03T09:13:08.835Z,11.13
2018-08-03T09:15:40.986Z,10.43
2018-08-03T09:18:13.106Z,10.47
2018-08-03T09:20:45.230Z,9.80
2018-08-03T09:23:17.337Z,10.20
2018-08-03T09:25:49.998Z,10.00
2018-08-03T09:28:22.273Z,9.60
2018-08-03T09:30:54.438Z,9.67
2018-08-03T09:33:26.365Z,10.20
2018-08-03T09:35:58.443Z,11.10
2018-08-03T09:38:30.518Z,11.17
2018-08-03T09:41:02.744Z,10.80
2018-08-03T09:43:34.787Z,11.07
2018-08-03T09:46:07.307Z,11.90
2018-08-03T09:48:39.435Z,11.30
2018-08-03T09:51:11.773Z,10.57
2018-08-03T09:53:43.862Z,11.90
2018-08-03T09:56:16.071Z,12.67
2018-08-03T09:58:48.446Z,11.73
2018-08-03T10:01:20.623Z,11.63
2018-08-03T10:03:52.745Z,12.10
2018-08-03T10:06:24.944Z,12.40
2018-08-03T10:08:57.114Z,12.00
2018-08-03T10:11:29.365Z,11.93
2018-08-03T10:14:01.497Z,11.67
2018-08-03T10:16:34.116Z,10.97
2018-08-03T10:19:06.309Z,11.50
2018-08-03T10:21:38.861Z,11.43
2018-08-03T10:24:11.825Z,12.33
2018-08-03T10:26:44.046Z,11.77
2018-08-03T10:29:15.539Z,12.43
2018-08-03T10:31:47.556Z,13.50
2018-08-03T10:34:19.597Z,11.67
2018-08-03T10:36:52.202Z,11.87
2018-08-03T10:39:24.346Z,10.70
2018-08-03T10:41:56.425Z,12.20
2018-08-03T10:44:28.525Z,13.77
2018-08-03T10:47:00.717Z,11.17
2018-08-03T10:49:32.748Z,11.37
2018-08-03T10:52:05.006Z,10.73
2018-08-03T10:54:37.627Z,11.77
2018-08-03T10:57:09.731Z,12.00
2018-08-03T10:59:41.660Z,11.87
2018-08-03T11:02:13.571Z,9.67
2018-08-03T11:04:45.718Z,10.63
2018-08-03T11:07:18.575Z,10.60
2018-08-03T11:09:51.746Z,10.27
2018-08-03T11:12:23.808Z,10.67
2018-08-03T11:14:56.323Z,11.13
2018-08-03T11:17:28.727Z,9.40
2018-08-03T11:20:00.798Z,9.60
2018-08-03T11:22:32.989Z,9.17
2018-08-03T11:25:05.052Z,9.87
2018-08-03T11:27:37.732Z,9.10
2018-08-03T11:30:11.525Z,9.10
2018-08-03T11:32:44.009Z,9.00
2018-08-03T11:35:16.195Z,9.23
2018-08-03T11:37:48.306Z,7.93
2018-08-03T11:40:19.927Z,8.23
2018-08-03T11:42:51.875Z,9.00
2018-08-03T11:45:23.999Z,8.03
2018-08-03T11:47:56.197Z,8.40
2018-08-03T11:50:29.091Z,8.30
2018-08-03T11:53:03.271Z,8.73
2018-08-03T11:55:35.744Z,8.40
2018-08-03T11:58:08.201Z,8.20
2018-08-03T12:00:40.473Z,8.17
2018-08-03T12:03:12.868Z,7.33
2018-08-03T12:05:45.123Z,8.20
2018-08-03T12:08:17.185Z,8.97
2018-08-03T12:10:49.612Z,7.70
2018-08-03T12:13:22.002Z,7.77
2018-08-03T12:15:54.974Z,8.40
2018-08-03T12:18:27.226Z,8.10
2018-08-03T12:20:59.259Z,7.97
2018-08-03T12:23:31.626Z,7.53
2018-08-03T12:26:03.844Z,7.67
2018-08-03T12:28:36.029Z,7.70
2018-08-03T12:31:08.368Z,7.50
2018-08-03T12:33:40.821Z,7.13
2018-08-03T12:36:13.008Z,8.05
2018-08-03T12:38:45.095Z,7.50
2018-08-03T12:41:17.321Z,8.00
2018-08-03T12:43:49.518Z,6.55
2018-08-03T12:46:21.682Z,7.78
2018-08-03T12:48:53.858Z,9.08
2018-08-03T12:51:26.066Z,7.92
2018-08-03T12:53:58.180Z,8.08
2018-08-03T12:56:30.679Z,8.83
2018-08-03T12:59:03.126Z,8.13
2018-08-03T13:01:35.141Z,9.03
2018-08-03T13:04:06.851Z,7.80
2018-08-03T13:06:38.798Z,9.78
2018-08-03T13:09:10.999Z,7.85
2018-08-03T13:11:43.245Z,7.70
2018-08-03T13:14:16.905Z,7.95
2018-08-03T13:16:49.263Z,7.60
2018-08-03T13:19:21.350Z,8.00
2018-08-03T13:21:54.578Z,7.95
2018-08-03T13:24:26.754Z,7.22
2018-08-03T13:26:58.871Z,7.45
2018-08-03T13:29:31.336Z,8.98
2018-08-03T13:32:04.845Z,8.13
2018-08-03T13:34:38.128Z,7.53
2018-08-03T13:37:10.334Z,7.17
2018-08-03T13:39:42.620Z,7.00
2018-08-03T13:42:14.807Z,7.75
2018-08-03T13:44:47.086Z,7.47
2018-08-03T13:47:19.219Z,7.08
2018-08-03T13:49:51.325Z,7.20
2018-08-03T13:52:22.967Z,7.05
2018-08-03T13:54:54.357Z,7.42
2018-08-03T13:57:26.204Z,7.55
2018-08-03T13:59:59.025Z,6.92
2018-08-03T14:02:31.266Z,7.20
2018-08-03T14:05:03.370Z,7.12
2018-08-03T14:07:36.235Z,6.53
2018-08-03T14:10:10.294Z,8.60
2018-08-03T14:12:42.343Z,6.33
2018-08-03T14:15:14.958Z,6.28
2018-08-03T14:17:47.266Z,6.20
2018-08-03T14:20:19.635Z,6.60
2018-08-03T14:22:52.009Z,6.03
2018-08-03T14:25:24.151Z,6.83
2018-08-03T14:27:56.362Z,10.65
2018-08-03T14:30:28.341Z,6.35
2018-08-03T14:33:00.361Z,6.92
2018-08-03T14:35:32.636Z,7.25
2018-08-03T14:38:04.798Z,6.65
2018-08-03T14:40:37.061Z,7.20
2018-08-03T14:43:09.432Z,7.08
2018-08-03T14:45:41.686Z,6.42
2018-08-03T14:48:13.910Z,6.70
2018-08-03T14:50:45.966Z,7.12
2018-08-03T14:53:18.026Z,8.08
2018-08-03T14:55:50.544Z,6.70
2018-08-03T14:58:22.689Z,7.25
2018-08-03T15:00:54.722Z,7.03
2018-08-03T15:03:26.887Z,8.50
2018-08-03T15:05:58.963Z,8.05
2018-08-03T15:08:31.254Z,7.20
2018-08-03T15:11:03.405Z,7.45
2018-08-03T15:13:35.317Z,7.83
2018-08-03T15:16:08.446Z,7.75
2018-08-03T15:18:40.699Z,7.20
2018-08-03T15:21:12.742Z,7.78
2018-08-03T15:23:44.784Z,7.70
2018-08-03T15:26:16.770Z,7.55
2018-08-03T15:28:49.078Z,7.10
2018-08-03T15:31:21.770Z,8.15
2018-08-03T15:33:54.035Z,7.30
2018-08-03T15:36:26.010Z,7.78
2018-08-03T15:38:58.106Z,7.53
2018-08-03T15:41:29.914Z,7.55
2018-08-03T15:44:01.775Z,7.95
2018-08-03T15:46:34.078Z,8.18
2018-08-03T15:49:06.495Z,8.73
2018-08-03T15:51:38.462Z,8.30
2018-08-03T15:54:10.567Z,8.45
2018-08-03T15:56:42.215Z,8.60
2018-08-03T15:59:14.166Z,8.80
2018-08-03T16:01:46.244Z,10.05
2018-08-03T16:04:18.472Z,7.97
2018-08-03T16:06:50.651Z,8.75
2018-08-03T16:09:22.843Z,8.50
2018-08-03T16:11:54.893Z,9.13
2018-08-03T16:14:26.936Z,9.43
2018-08-03T16:16:59.052Z,9.00
2018-08-03T16:19:31.131Z,9.63
2018-08-03T16:22:03.713Z,9.50
2018-08-03T16:24:35.795Z,9.35
2018-08-03T16:27:07.912Z,10.15
2018-08-03T16:29:40.078Z,9.13
2018-08-03T16:32:12.143Z,9.68
2018-08-03T16:34:44.235Z,10.50
2018-08-03T16:37:16.406Z,9.60
2018-08-03T16:39:48.604Z,8.80
2018-08-03T16:42:20.587Z,9.03
2018-08-03T16:44:52.729Z,9.03
2018-08-03T16:47:24.704Z,9.93
2018-08-03T16:49:57.013Z,9.80
2018-08-03T16:52:29.052Z,10.50
2018-08-03T16:55:01.054Z,9.87
2018-08-03T16:57:32.989Z,10.43
2018-08-03T17:00:05.506Z,12.07
2018-08-03T17:02:38.015Z,9.70
2018-08-03T17:05:10.257Z,9.98
2018-08-03T17:07:42.236Z,9.35
2018-08-03T17:10:14.385Z,9.85
2018-08-03T17:12:46.429Z,9.28
2018-08-03T17:15:18.523Z,9.13
2018-08-03T17:17:50.409Z,9.03
2018-08-03T17:20:22.444Z,9.70
2018-08-03T17:22:54.614Z,12.47
2018-08-03T17:25:27.137Z,9.68
2018-08-03T17:28:02.455Z,9.80
2018-08-03T17:30:42.310Z,11.28
2018-08-03T17:33:14.634Z,9.58
2018-08-03T17:35:48.068Z,10.32
2018-08-03T17:38:20.493Z,9.50
2018-08-03T17:40:52.503Z,9.38
2018-08-03T17:43:24.708Z,10.85
2018-08-03T17:45:56.976Z,10.47
2018-08-03T17:48:29.026Z,10.33
2018-08-03T17:51:01.745Z,11.40
2018-08-03T17:53:33.631Z,10.87
2018-08-03T17:56:05.353Z,10.63
2018-08-03T17:58:37.368Z,10.87
2018-08-03T18:01:09.385Z,10.70
2018-08-03T18:03:41.399Z,11.07
2018-08-03T18:06:13.302Z,10.57
2018-08-03T18:08:45.305Z,10.97
2018-08-03T18:11:17.339Z,10.93
2018-08-03T18:13:49.529Z,10.77
2018-08-03T18:16:21.994Z,12.40
2018-08-03T18:18:54.585Z,10.90
2018-08-03T18:21:26.562Z,11.23
2018-08-03T18:23:58.485Z,11.47
2018-08-03T18:26:30.694Z,11.43
2018-08-03T18:29:03.014Z,11.17
2018-08-03T18:31:35.082Z,10.97
2018-08-03T18:34:07.261Z,11.87
2018-08-03T18:36:39.356Z,11.00
2018-08-03T18:39:13.372Z,10.97
2018-08-03T18:41:45.617Z,11.13
2018-08-03T18:44:19.042Z,11.03
2018-08-03T18:46:51.128Z,10.97
2018-08-03T18:49:23.212Z,10.30
2018-08-03T18:51:58.360Z,11.40
2018-08-03T18:54:30.729Z,10.97
2018-08-03T18:57:02.801Z,10.90
2018-08-03T18:59:35.915Z,11.33
2018-08-03T19:02:08.533Z,11.33
2018-08-03T19:04:40.761Z,11.97
2018-08-03T19:07:12.945Z,11.33
2018-08-03T19:09:46.851Z,11.30
2018-08-03T19:12:18.664Z,11.47
2018-08-03T19:14:51.541Z,10.80
2018-08-03T19:17:23.595Z,11.43
2018-08-03T19:19:55.655Z,11.63
2018-08-03T19:22:27.694Z,11.60
2018-08-03T19:25:00.142Z,11.40
2018-08-03T19:27:32.349Z,11.87
2018-08-03T19:30:05.711Z,12.00
2018-08-03T19:32:37.750Z,11.60
2018-08-03T19:35:09.998Z,11.10
2018-08-03T19:37:42.191Z,11.93
2018-08-03T19:40:14.708Z,11.60
2018-08-03T19:42:46.924Z,11.83
2018-08-03T19:45:19.755Z,11.47
2018-08-03T19:47:51.938Z,11.73
2018-08-03T19:50:23.958Z,10.80
2018-08-03T19:52:56.051Z,12.27
2018-08-03T19:55:28.159Z,12.13
2018-08-03T19:58:00.614Z,12.10
2018-08-03T20:00:32.973Z,12.93
2018-08-03T20:03:10.904Z,12.53
2018-08-03T20:05:48.693Z,11.23
2018-08-03T20:08:26.363Z,12.87
2018-08-03T20:11:03.763Z,11.17
2018-08-03T20:13:41.366Z,12.20
2018-08-03T20:16:19.002Z,11.50
2018-08-03T20:18:56.730Z,11.63
2018-08-03T20:21:34.172Z,12.17
2018-08-03T20:24:13.480Z,11.60
2018-08-03T20:26:47.407Z,11.63
2018-08-03T20:29:18.939Z,11.87
2018-08-03T20:31:50.402Z,12.23
2018-08-03T20:34:21.936Z,12.50
2018-08-03T20:36:53.547Z,11.80
2018-08-03T20:39:31.521Z,15.47
2018-08-03T20:42:04.022Z,13.53
2018-08-03T20:44:36.213Z,11.77
2018-08-03T20:47:08.412Z,12.53
2018-08-03T20:49:40.599Z,12.37
2018-08-03T20:52:12.717Z,12.37
2018-08-03T20:54:45.180Z,12.57
2018-08-03T20:57:17.401Z,12.50
2018-08-03T20:59:50.106Z,11.67
2018-08-03T21:02:22.438Z,12.07
2018-08-03T21:04:55.518Z,15.87
2018-08-03T21:07:27.745Z,12.90
2018-08-03T21:10:00.001Z,11.10
2018-08-03T21:12:32.063Z,12.83
2018-08-03T21:15:04.183Z,11.70
2018-08-03T21:17:37.170Z,13.97
2018-08-03T21:20:10.254Z,12.20
2018-08-03T21:22:42.321Z,13.10
2018-08-03T21:25:15.587Z,14.33
2018-08-03T21:27:47.610Z,12.17
2018-08-03T21:30:19.745Z,12.60
2018-08-03T21:32:51.701Z,12.13
2018-08-03T21:35:24.081Z,13.07
2018-08-03T21:37:56.330Z,13.03
2018-08-03T21:40:28.721Z,11.83
2018-08-03T21:43:01.368Z,12.63
2018-08-03T21:45:33.781Z,13.13
2018-08-03T21:48:06.233Z,13.77
2018-08-03T21:50:38.473Z,14.00
2018-08-03T21:53:10.785Z,13.57
2018-08-03T21:55:42.919Z,12.87
2018-08-03T21:58:14.621Z,13.10
2018-08-03T22:00:46.665Z,14.23
2018-08-03T22:03:18.853Z,13.60
2018-08-03T22:05:50.900Z,13.17
2018-08-03T22:08:22.450Z,15.97
2018-08-03T22:10:54.623Z,13.80
2018-08-03T22:13:26.756Z,13.33
2018-08-03T22:15:58.960Z,13.43
2018-08-03T22:18:31.421Z,12.93
2018-08-03T22:21:03.204Z,13.27
2018-08-03T22:23:35.262Z,13.33
2018-08-03T22:26:07.745Z,13.13
2018-08-03T22:28:40.140Z,12.77
2018-08-03T22:31:12.522Z,13.63
2018-08-03T22:33:44.710Z,13.87
2018-08-03T22:36:17.382Z,13.13
2018-08-03T22:38:49.716Z,13.40
2018-08-03T22:41:22.245Z,14.63
2018-08-03T22:43:53.982Z,13.63
2018-08-03T22:46:26.197Z,13.23
2018-08-03T22:48:58.705Z,14.13
2018-08-03T22:51:31.025Z,12.47
2018-08-03T22:54:03.795Z,13.77
2018-08-03T22:56:36.328Z,13.47
2018-08-03T22:59:08.126Z,14.13
2018-08-03T23:01:40.302Z,12.80
2018-08-03T23:04:19.352Z,12.47
2018-08-03T23:06:51.518Z,12.70
2018-08-03T23:09:23.822Z,13.20
2018-08-03T23:11:55.958Z,14.37
2018-08-03T23:14:28.034Z,14.60
2018-08-03T23:17:00.333Z,14.23
2018-08-03T23:19:32.460Z,13.90
2018-08-03T23:22:04.781Z,15.20
2018-08-03T23:24:37.512Z,14.70
2018-08-03T23:27:10.554Z,14.53
2018-08-03T23:29:42.767Z,14.60
2018-08-03T23:32:15.042Z,14.20
2018-08-03T23:34:47.103Z,13.27
2018-08-03T23:37:19.342Z,13.73
2018-08-03T23:39:51.693Z,13.60
2018-08-03T23:42:23.966Z,14.87
2018-08-03T23:44:56.177Z,14.70
2018-08-03T23:47:28.508Z,13.97
2018-08-03T23:50:00.654Z,14.37
2018-08-03T23:52:32.827Z,14.53
2018-08-03T23:55:05.186Z,14.60
2018-08-03T23:57:38.411Z,13.67
